sensor_id;sensor_type;location;lat;lon;timestamp;P1;durP1;ratioP1;P2;durP2;ratioP2
6519;SDS011;3293;51.690;5.982;2023-03-24T00:04:47;4.13;;;3.73;;
6519;SDS011;3293;51.690;5.982;2023-03-24T00:09:50;6.03;;;4.00;;
6519;SDS011;3293;51.690;5.982;2023-03-24T00:14:50;7.33;;;4.03;;
6519;SDS011;3293;51.690;5.982;2023-03-24T00:19:52;6.27;;;3.70;;
6519;SDS011;3293;51.690;5.982;2023-03-24T00:24:54;9.43;;;4.10;;
6519;SDS011;3293;51.690;5.982;2023-03-24T00:29:54;7.17;;;4.03;;
6519;SDS011;3293;51.690;5.982;2023-03-24T00:34:57;6.47;;;4.27;;
6519;SDS011;3293;51.690;5.982;2023-03-24T00:39:58;6.53;;;4.17;;
6519;SDS011;3293;51.690;5.982;2023-03-24T00:44:59;5.93;;;4.23;;
6519;SDS011;3293;51.690;5.982;2023-03-24T00:49:59;4.70;;;3.83;;
6519;SDS011;3293;51.690;5.982;2023-03-24T00:55:01;6.17;;;4.27;;
6519;SDS011;3293;51.690;5.982;2023-03-24T01:00:03;5.40;;;4.30;;
6519;SDS011;3293;51.690;5.982;2023-03-24T01:05:12;6.67;;;4.30;;
6519;SDS011;3293;51.690;5.982;2023-03-24T01:10:15;5.20;;;4.50;;
6519;SDS011;3293;51.690;5.982;2023-03-24T01:15:17;5.30;;;4.30;;
6519;SDS011;3293;51.690;5.982;2023-03-24T01:20:20;7.17;;;3.97;;
6519;SDS011;3293;51.690;5.982;2023-03-24T01:25:21;7.57;;;4.43;;
6519;SDS011;3293;51.690;5.982;2023-03-24T01:30:23;4.97;;;3.80;;
6519;SDS011;3293;51.690;5.982;2023-03-24T01:35:25;6.17;;;3.80;;
6519;SDS011;3293;51.690;5.982;2023-03-24T01:40:29;4.00;;;3.60;;
6519;SDS011;3293;51.690;5.982;2023-03-24T01:56:24;4.33;;;3.90;;
6519;SDS011;3293;51.690;5.982;2023-03-24T02:01:26;4.97;;;3.83;;
6519;SDS011;3293;51.690;5.982;2023-03-24T02:06:29;4.93;;;3.80;;
6519;SDS011;3293;51.690;5.982;2023-03-24T02:11:32;5.57;;;4.20;;
6519;SDS011;3293;51.690;5.982;2023-03-24T02:44:49;6.43;;;4.63;;
6519;SDS011;3293;51.690;5.982;2023-03-24T02:49:55;6.50;;;4.80;;
6519;SDS011;3293;51.690;5.982;2023-03-24T02:55:09;5.70;;;5.10;;
6519;SDS011;3293;51.690;5.982;2023-03-24T03:00:26;8.13;;;5.27;;
6519;SDS011;3293;51.690;5.982;2023-03-24T03:05:33;6.30;;;4.87;;
6519;SDS011;3293;51.690;5.982;2023-03-24T03:10:38;5.53;;;4.93;;
6519;SDS011;3293;51.690;5.982;2023-03-24T03:15:45;6.30;;;4.27;;
6519;SDS011;3293;51.690;5.982;2023-03-24T03:20:51;5.23;;;4.73;;
6519;SDS011;3293;51.690;5.982;2023-03-24T03:25:56;6.10;;;4.50;;
6519;SDS011;3293;51.690;5.982;2023-03-24T03:31:05;5.90;;;4.23;;
6519;SDS011;3293;51.690;5.982;2023-03-24T03:36:13;5.00;;;4.47;;
6519;SDS011;3293;51.690;5.982;2023-03-24T03:41:22;5.87;;;4.27;;
6519;SDS011;3293;51.690;5.982;2023-03-24T03:46:22;5.23;;;4.70;;
6519;SDS011;3293;51.690;5.982;2023-03-24T03:51:22;4.27;;;3.10;;
6519;SDS011;3293;51.690;5.982;2023-03-24T03:56:26;2.50;;;2.30;;
6519;SDS011;3293;51.690;5.982;2023-03-24T04:01:28;3.33;;;2.00;;
6519;SDS011;3293;51.690;5.982;2023-03-24T04:06:40;2.67;;;1.80;;
6519;SDS011;3293;51.690;5.982;2023-03-24T04:17:23;5.10;;;2.03;;
6519;SDS011;3293;51.690;5.982;2023-03-24T04:22:51;7.07;;;2.93;;
6519;SDS011;3293;51.690;5.982;2023-03-24T04:33:56;7.43;;;3.60;;
6519;SDS011;3293;51.690;5.982;2023-03-24T04:39:01;8.47;;;3.83;;
6519;SDS011;3293;51.690;5.982;2023-03-24T04:44:02;7.73;;;4.27;;
6519;SDS011;3293;51.690;5.982;2023-03-24T04:49:03;7.27;;;4.47;;
6519;SDS011;3293;51.690;5.982;2023-03-24T04:54:03;11.73;;;5.87;;
6519;SDS011;3293;51.690;5.982;2023-03-24T04:59:03;14.10;;;5.87;;
6519;SDS011;3293;51.690;5.982;2023-03-24T05:04:05;13.90;;;5.90;;
6519;SDS011;3293;51.690;5.982;2023-03-24T05:09:06;10.07;;;4.63;;
6519;SDS011;3293;51.690;5.982;2023-03-24T05:14:06;13.00;;;4.90;;
6519;SDS011;3293;51.690;5.982;2023-03-24T05:19:06;8.53;;;4.33;;
6519;SDS011;3293;51.690;5.982;2023-03-24T05:24:06;9.47;;;4.73;;
6519;SDS011;3293;51.690;5.982;2023-03-24T05:29:06;7.07;;;4.67;;
6519;SDS011;3293;51.690;5.982;2023-03-24T05:34:07;11.13;;;4.30;;
6519;SDS011;3293;51.690;5.982;2023-03-24T05:39:07;9.63;;;4.40;;
6519;SDS011;3293;51.690;5.982;2023-03-24T05:44:06;11.33;;;4.33;;
6519;SDS011;3293;51.690;5.982;2023-03-24T05:49:06;8.07;;;3.73;;
6519;SDS011;3293;51.690;5.982;2023-03-24T05:54:06;13.83;;;3.70;;
6519;SDS011;3293;51.690;5.982;2023-03-24T05:59:06;8.20;;;3.90;;
6519;SDS011;3293;51.690;5.982;2023-03-24T06:04:06;6.50;;;4.10;;
6519;SDS011;3293;51.690;5.982;2023-03-24T06:09:07;9.20;;;4.13;;
6519;SDS011;3293;51.690;5.982;2023-03-24T06:14:07;6.83;;;4.03;;
6519;SDS011;3293;51.690;5.982;2023-03-24T06:19:07;12.30;;;4.77;;
6519;SDS011;3293;51.690;5.982;2023-03-24T06:24:07;7.80;;;4.20;;
6519;SDS011;3293;51.690;5.982;2023-03-24T06:29:07;8.20;;;4.20;;
6519;SDS011;3293;51.690;5.982;2023-03-24T06:34:07;9.17;;;3.60;;
6519;SDS011;3293;51.690;5.982;2023-03-24T06:39:07;7.23;;;3.80;;
6519;SDS011;3293;51.690;5.982;2023-03-24T06:44:07;8.60;;;3.53;;
6519;SDS011;3293;51.690;5.982;2023-03-24T06:49:07;12.63;;;4.20;;
6519;SDS011;3293;51.690;5.982;2023-03-24T06:54:07;11.43;;;3.53;;
6519;SDS011;3293;51.690;5.982;2023-03-24T06:59:08;10.30;;;3.57;;
6519;SDS011;3293;51.690;5.982;2023-03-24T07:04:08;12.27;;;3.27;;
6519;SDS011;3293;51.690;5.982;2023-03-24T07:09:08;11.67;;;3.50;;
6519;SDS011;3293;51.690;5.982;2023-03-24T07:14:08;11.60;;;3.07;;
6519;SDS011;3293;51.690;5.982;2023-03-24T07:19:08;9.37;;;3.37;;
6519;SDS011;3293;51.690;5.982;2023-03-24T07:24:08;14.40;;;3.30;;
6519;SDS011;3293;51.690;5.982;2023-03-24T07:29:09;12.73;;;3.10;;
6519;SDS011;3293;51.690;5.982;2023-03-24T07:34:10;14.77;;;3.40;;
6519;SDS011;3293;51.690;5.982;2023-03-24T07:39:10;9.53;;;3.63;;
6519;SDS011;3293;51.690;5.982;2023-03-24T07:44:11;9.98;;;3.38;;
6519;SDS011;3293;51.690;5.982;2023-03-24T07:49:11;10.18;;;3.15;;
6519;SDS011;3293;51.690;5.982;2023-03-24T07:54:11;12.43;;;3.30;;
6519;SDS011;3293;51.690;5.982;2023-03-24T07:59:11;8.18;;;3.00;;
6519;SDS011;3293;51.690;5.982;2023-03-24T08:04:11;8.98;;;3.10;;
6519;SDS011;3293;51.690;5.982;2023-03-24T08:09:12;12.73;;;3.95;;
6519;SDS011;3293;51.690;5.982;2023-03-24T08:14:13;7.88;;;3.55;;
6519;SDS011;3293;51.690;5.982;2023-03-24T08:19:12;9.15;;;3.63;;
6519;SDS011;3293;51.690;5.982;2023-03-24T08:24:12;13.35;;;3.45;;
6519;SDS011;3293;51.690;5.982;2023-03-24T08:29:12;15.13;;;3.60;;
6519;SDS011;3293;51.690;5.982;2023-03-24T08:34:12;13.67;;;3.47;;
6519;SDS011;3293;51.690;5.982;2023-03-24T08:39:12;7.47;;;3.10;;
6519;SDS011;3293;51.690;5.982;2023-03-24T08:44:12;8.90;;;3.00;;
6519;SDS011;3293;51.690;5.982;2023-03-24T08:49:12;9.27;;;3.30;;
6519;SDS011;3293;51.690;5.982;2023-03-24T08:54:12;10.03;;;3.00;;
6519;SDS011;3293;51.690;5.982;2023-03-24T08:59:12;10.60;;;3.63;;
6519;SDS011;3293;51.690;5.982;2023-03-24T09:04:12;11.87;;;4.00;;
6519;SDS011;3293;51.690;5.982;2023-03-24T09:09:12;11.37;;;3.40;;
6519;SDS011;3293;51.690;5.982;2023-03-24T09:14:12;12.90;;;3.83;;
6519;SDS011;3293;51.690;5.982;2023-03-24T09:19:12;12.30;;;3.27;;
6519;SDS011;3293;51.690;5.982;2023-03-24T09:24:12;10.80;;;3.33;;
6519;SDS011;3293;51.690;5.982;2023-03-24T09:29:13;9.00;;;3.87;;
6519;SDS011;3293;51.690;5.982;2023-03-24T09:34:13;11.40;;;3.03;;
6519;SDS011;3293;51.690;5.982;2023-03-24T09:39:13;9.33;;;3.13;;
6519;SDS011;3293;51.690;5.982;2023-03-24T09:44:27;12.23;;;3.20;;
6519;SDS011;3293;51.690;5.982;2023-03-24T09:49:39;10.70;;;3.57;;
6519;SDS011;3293;51.690;5.982;2023-03-24T09:59:56;8.10;;;2.70;;
6519;SDS011;3293;51.690;5.982;2023-03-24T10:04:57;11.63;;;3.13;;
6519;SDS011;3293;51.690;5.982;2023-03-24T10:09:58;6.27;;;3.37;;
6519;SDS011;3293;51.690;5.982;2023-03-24T10:25:55;12.87;;;3.20;;
6519;SDS011;3293;51.690;5.982;2023-03-24T10:31:03;8.43;;;3.53;;
6519;SDS011;3293;51.690;5.982;2023-03-24T10:36:10;7.87;;;3.33;;
6519;SDS011;3293;51.690;5.982;2023-03-24T10:41:20;10.77;;;3.57;;
6519;SDS011;3293;51.690;5.982;2023-03-24T10:46:24;8.40;;;3.13;;
6519;SDS011;3293;51.690;5.982;2023-03-24T10:51:29;8.93;;;3.70;;
6519;SDS011;3293;51.690;5.982;2023-03-24T10:56:39;10.10;;;3.70;;
6519;SDS011;3293;51.690;5.982;2023-03-24T11:01:41;8.73;;;3.50;;
6519;SDS011;3293;51.690;5.982;2023-03-24T11:06:59;10.00;;;3.40;;
6519;SDS011;3293;51.690;5.982;2023-03-24T11:12:24;8.10;;;3.47;;
6519;SDS011;3293;51.690;5.982;2023-03-24T11:17:28;9.53;;;3.40;;
6519;SDS011;3293;51.690;5.982;2023-03-24T11:22:28;9.37;;;3.07;;
6519;SDS011;3293;51.690;5.982;2023-03-24T11:27:28;8.73;;;2.63;;
6519;SDS011;3293;51.690;5.982;2023-03-24T11:32:29;8.63;;;2.87;;
6519;SDS011;3293;51.690;5.982;2023-03-24T11:37:31;6.77;;;2.80;;
6519;SDS011;3293;51.690;5.982;2023-03-24T11:42:33;10.80;;;2.97;;
6519;SDS011;3293;51.690;5.982;2023-03-24T11:47:43;7.37;;;2.40;;
6519;SDS011;3293;51.690;5.982;2023-03-24T12:08:51;3.73;;;2.17;;
6519;SDS011;3293;51.690;5.982;2023-03-24T12:13:57;8.33;;;2.33;;
6519;SDS011;3293;51.690;5.982;2023-03-24T12:56:04;3.67;;;1.83;;
6519;SDS011;3293;51.690;5.982;2023-03-24T13:01:24;3.47;;;2.10;;
6519;SDS011;3293;51.690;5.982;2023-03-24T13:06:46;5.17;;;1.90;;
6519;SDS011;3293;51.690;5.982;2023-03-24T13:12:03;3.60;;;1.60;;
6519;SDS011;3293;51.690;5.982;2023-03-24T13:17:18;1.60;;;1.50;;
6519;SDS011;3293;51.690;5.982;2023-03-24T13:22:29;1.60;;;1.30;;
6519;SDS011;3293;51.690;5.982;2023-03-24T13:27:32;1.97;;;1.53;;
6519;SDS011;3293;51.690;5.982;2023-03-24T13:37:51;3.33;;;1.63;;
6519;SDS011;3293;51.690;5.982;2023-03-24T13:42:56;3.40;;;1.90;;
6519;SDS011;3293;51.690;5.982;2023-03-24T13:53:06;5.33;;;2.07;;
6519;SDS011;3293;51.690;5.982;2023-03-24T13:58:17;4.27;;;1.93;;
6519;SDS011;3293;51.690;5.982;2023-03-24T14:03:39;2.20;;;1.80;;
6519;SDS011;3293;51.690;5.982;2023-03-24T14:08:43;4.57;;;2.00;;
6519;SDS011;3293;51.690;5.982;2023-03-24T14:19:24;1.87;;;1.77;;
6519;SDS011;3293;51.690;5.982;2023-03-24T14:24:28;3.43;;;2.07;;
6519;SDS011;3293;51.690;5.982;2023-03-24T14:29:38;5.80;;;2.50;;
6519;SDS011;3293;51.690;5.982;2023-03-24T14:34:53;7.93;;;2.70;;
6519;SDS011;3293;51.690;5.982;2023-03-24T14:39:56;9.93;;;2.43;;
6519;SDS011;3293;51.690;5.982;2023-03-24T14:45:00;6.47;;;2.47;;
6519;SDS011;3293;51.690;5.982;2023-03-24T14:50:15;3.80;;;2.30;;
6519;SDS011;3293;51.690;5.982;2023-03-24T14:55:18;3.27;;;1.40;;
6519;SDS011;3293;51.690;5.982;2023-03-24T15:05:29;2.60;;;1.33;;
6519;SDS011;3293;51.690;5.982;2023-03-24T15:16:00;2.20;;;1.40;;
6519;SDS011;3293;51.690;5.982;2023-03-24T15:21:27;2.07;;;1.50;;
6519;SDS011;3293;51.690;5.982;2023-03-24T15:26:35;2.13;;;1.70;;
6519;SDS011;3293;51.690;5.982;2023-03-24T15:31:36;2.50;;;1.70;;
6519;SDS011;3293;51.690;5.982;2023-03-24T15:36:39;3.00;;;2.00;;
6519;SDS011;3293;51.690;5.982;2023-03-24T15:41:43;4.00;;;2.47;;
6519;SDS011;3293;51.690;5.982;2023-03-24T15:46:44;3.80;;;2.07;;
6519;SDS011;3293;51.690;5.982;2023-03-24T15:51:48;5.50;;;2.13;;
6519;SDS011;3293;51.690;5.982;2023-03-24T15:57:01;2.70;;;2.40;;
6519;SDS011;3293;51.690;5.982;2023-03-24T16:02:16;4.30;;;2.60;;
6519;SDS011;3293;51.690;5.982;2023-03-24T16:07:31;3.87;;;2.50;;
6519;SDS011;3293;51.690;5.982;2023-03-24T16:12:34;4.90;;;3.10;;
6519;SDS011;3293;51.690;5.982;2023-03-24T16:17:35;4.80;;;2.80;;
6519;SDS011;3293;51.690;5.982;2023-03-24T16:22:35;7.17;;;2.90;;
6519;SDS011;3293;51.690;5.982;2023-03-24T16:27:35;5.33;;;2.70;;
6519;SDS011;3293;51.690;5.982;2023-03-24T16:32:35;5.13;;;2.50;;
6519;SDS011;3293;51.690;5.982;2023-03-24T16:37:34;6.30;;;2.40;;
6519;SDS011;3293;51.690;5.982;2023-03-24T16:42:34;4.53;;;2.50;;
6519;SDS011;3293;51.690;5.982;2023-03-24T16:47:34;5.70;;;2.60;;
6519;SDS011;3293;51.690;5.982;2023-03-24T16:52:34;6.93;;;2.80;;
6519;SDS011;3293;51.690;5.982;2023-03-24T16:57:34;6.23;;;2.60;;
6519;SDS011;3293;51.690;5.982;2023-03-24T17:02:34;8.23;;;2.43;;
6519;SDS011;3293;51.690;5.982;2023-03-24T17:07:35;5.33;;;2.13;;
6519;SDS011;3293;51.690;5.982;2023-03-24T17:12:35;6.97;;;2.73;;
6519;SDS011;3293;51.690;5.982;2023-03-24T17:17:35;9.17;;;2.27;;
6519;SDS011;3293;51.690;5.982;2023-03-24T17:22:36;6.03;;;2.27;;
6519;SDS011;3293;51.690;5.982;2023-03-24T17:27:36;8.73;;;2.70;;
6519;SDS011;3293;51.690;5.982;2023-03-24T17:32:36;8.97;;;2.70;;
6519;SDS011;3293;51.690;5.982;2023-03-24T17:37:37;3.63;;;1.87;;
6519;SDS011;3293;51.690;5.982;2023-03-24T17:42:38;4.60;;;2.20;;
6519;SDS011;3293;51.690;5.982;2023-03-24T17:47:39;5.30;;;2.43;;
6519;SDS011;3293;51.690;5.982;2023-03-24T17:52:44;5.73;;;2.20;;
6519;SDS011;3293;51.690;5.982;2023-03-24T17:57:44;3.07;;;2.30;;
6519;SDS011;3293;51.690;5.982;2023-03-24T18:02:44;2.87;;;2.40;;
6519;SDS011;3293;51.690;5.982;2023-03-24T18:07:45;6.33;;;2.60;;
6519;SDS011;3293;51.690;5.982;2023-03-24T18:12:45;7.57;;;2.67;;
6519;SDS011;3293;51.690;5.982;2023-03-24T18:17:45;9.33;;;2.80;;
6519;SDS011;3293;51.690;5.982;2023-03-24T18:22:45;5.73;;;2.70;;
6519;SDS011;3293;51.690;5.982;2023-03-24T18:27:45;6.57;;;3.00;;
6519;SDS011;3293;51.690;5.982;2023-03-24T18:32:45;8.27;;;3.30;;
6519;SDS011;3293;51.690;5.982;2023-03-24T18:37:45;7.60;;;3.00;;
6519;SDS011;3293;51.690;5.982;2023-03-24T18:42:45;11.03;;;2.70;;
6519;SDS011;3293;51.690;5.982;2023-03-24T18:47:45;6.43;;;3.00;;
6519;SDS011;3293;51.690;5.982;2023-03-24T18:52:46;5.53;;;2.67;;
6519;SDS011;3293;51.690;5.982;2023-03-24T18:57:45;3.70;;;2.60;;
6519;SDS011;3293;51.690;5.982;2023-03-24T19:02:45;4.00;;;2.80;;
6519;SDS011;3293;51.690;5.982;2023-03-24T19:07:45;4.60;;;2.43;;
6519;SDS011;3293;51.690;5.982;2023-03-24T19:12:46;4.33;;;2.40;;
6519;SDS011;3293;51.690;5.982;2023-03-24T19:17:46;4.83;;;2.50;;
6519;SDS011;3293;51.690;5.982;2023-03-24T19:22:46;6.03;;;2.40;;
6519;SDS011;3293;51.690;5.982;2023-03-24T19:27:46;4.47;;;2.87;;
6519;SDS011;3293;51.690;5.982;2023-03-24T19:32:47;5.33;;;2.93;;
6519;SDS011;3293;51.690;5.982;2023-03-24T19:37:47;3.00;;;2.40;;
6519;SDS011;3293;51.690;5.982;2023-03-24T19:42:47;6.63;;;2.77;;
6519;SDS011;3293;51.690;5.982;2023-03-24T19:47:47;8.53;;;2.77;;
6519;SDS011;3293;51.690;5.982;2023-03-24T19:52:47;4.53;;;2.20;;
6519;SDS011;3293;51.690;5.982;2023-03-24T19:57:47;7.40;;;3.00;;
6519;SDS011;3293;51.690;5.982;2023-03-24T20:02:47;5.23;;;2.73;;
6519;SDS011;3293;51.690;5.982;2023-03-24T20:07:46;5.83;;;2.70;;
6519;SDS011;3293;51.690;5.982;2023-03-24T20:12:46;4.60;;;2.40;;
6519;SDS011;3293;51.690;5.982;2023-03-24T20:17:47;2.73;;;2.37;;
6519;SDS011;3293;51.690;5.982;2023-03-24T20:22:47;5.53;;;2.50;;
6519;SDS011;3293;51.690;5.982;2023-03-24T20:27:47;8.13;;;2.80;;
6519;SDS011;3293;51.690;5.982;2023-03-24T20:32:47;6.00;;;2.67;;
6519;SDS011;3293;51.690;5.982;2023-03-24T20:37:48;4.40;;;2.30;;
6519;SDS011;3293;51.690;5.982;2023-03-24T20:42:48;7.00;;;3.20;;
6519;SDS011;3293;51.690;5.982;2023-03-24T20:47:48;5.33;;;2.40;;
6519;SDS011;3293;51.690;5.982;2023-03-24T20:52:48;6.60;;;2.43;;
6519;SDS011;3293;51.690;5.982;2023-03-24T20:57:48;6.10;;;2.30;;
6519;SDS011;3293;51.690;5.982;2023-03-24T21:02:48;5.23;;;2.57;;
6519;SDS011;3293;51.690;5.982;2023-03-24T21:07:48;3.27;;;2.23;;
6519;SDS011;3293;51.690;5.982;2023-03-24T21:12:48;4.93;;;2.30;;
6519;SDS011;3293;51.690;5.982;2023-03-24T21:17:48;4.20;;;2.30;;
6519;SDS011;3293;51.690;5.982;2023-03-24T21:22:48;2.67;;;2.20;;
6519;SDS011;3293;51.690;5.982;2023-03-24T21:27:51;7.57;;;2.70;;
6519;SDS011;3293;51.690;5.982;2023-03-24T21:32:53;5.17;;;2.80;;
6519;SDS011;3293;51.690;5.982;2023-03-24T21:37:55;4.47;;;2.70;;
6519;SDS011;3293;51.690;5.982;2023-03-24T21:42:56;4.57;;;2.87;;
6519;SDS011;3293;51.690;5.982;2023-03-24T21:48:05;4.30;;;2.40;;
6519;SDS011;3293;51.690;5.982;2023-03-24T21:53:05;5.53;;;2.53;;
6519;SDS011;3293;51.690;5.982;2023-03-24T21:58:13;4.07;;;2.40;;
6519;SDS011;3293;51.690;5.982;2023-03-24T22:03:13;2.83;;;2.40;;
6519;SDS011;3293;51.690;5.982;2023-03-24T22:08:14;6.63;;;2.20;;
6519;SDS011;3293;51.690;5.982;2023-03-24T22:13:20;6.43;;;2.83;;
6519;SDS011;3293;51.690;5.982;2023-03-24T22:18:24;4.90;;;2.73;;
6519;SDS011;3293;51.690;5.982;2023-03-24T22:23:26;4.30;;;2.27;;
6519;SDS011;3293;51.690;5.982;2023-03-24T22:28:31;2.83;;;2.17;;
6519;SDS011;3293;51.690;5.982;2023-03-24T22:33:32;5.77;;;2.40;;
6519;SDS011;3293;51.690;5.982;2023-03-24T22:38:32;3.47;;;2.30;;
6519;SDS011;3293;51.690;5.982;2023-03-24T22:43:33;4.77;;;2.50;;
6519;SDS011;3293;51.690;5.982;2023-03-24T22:48:34;5.57;;;2.60;;
6519;SDS011;3293;51.690;5.982;2023-03-24T22:53:34;3.73;;;2.53;;
6519;SDS011;3293;51.690;5.982;2023-03-24T22:58:34;7.53;;;2.40;;
6519;SDS011;3293;51.690;5.982;2023-03-24T23:03:34;8.00;;;2.63;;
6519;SDS011;3293;51.690;5.982;2023-03-24T23:08:34;4.83;;;2.33;;
6519;SDS011;3293;51.690;5.982;2023-03-24T23:13:35;3.23;;;2.60;;
6519;SDS011;3293;51.690;5.982;2023-03-24T23:18:37;5.87;;;2.60;;
6519;SDS011;3293;51.690;5.982;2023-03-24T23:23:37;4.53;;;2.83;;
6519;SDS011;3293;51.690;5.982;2023-03-24T23:28:42;6.63;;;2.83;;
6519;SDS011;3293;51.690;5.982;2023-03-24T23:33:42;6.50;;;2.40;;
6519;SDS011;3293;51.690;5.982;2023-03-24T23:38:44;6.27;;;2.33;;
6519;SDS011;3293;51.690;5.982;2023-03-24T23:43:46;5.27;;;2.67;;
6519;SDS011;3293;51.690;5.982;2023-03-24T23:48:49;6.40;;;2.53;;
6519;SDS011;3293;51.690;5.982;2023-03-24T23:53:49;4.20;;;2.30;;
6519;SDS011;3293;51.690;5.982;2023-03-24T23:58:49;6.27;;;2.97;;
